createdAt,value
2022-09-21T00:00:38.775Z,101161.28
2022-09-21T00:01:40.352Z,101153.97
2022-09-21T00:02:41.839Z,101153.13
2022-09-21T00:03:43.491Z,101144.97
2022-09-21T00:04:45.007Z,101142.44
2022-09-21T00:05:46.466Z,101148.91
2022-09-21T00:06:47.979Z,101140.72
2022-09-21T00:07:49.795Z,101142.97
2022-09-21T00:08:51.269Z,101149.41
2022-09-21T00:09:52.702Z,101151.38
2022-09-21T00:10:54.170Z,101145.19
2022-09-21T00:11:58.281Z,101154.47
2022-09-21T00:13:00.249Z,101151.94
2022-09-21T00:14:04.409Z,101148.28
2022-09-21T00:15:09.493Z,101156.97
2022-09-21T00:16:10.959Z,101153.59
2022-09-21T00:17:12.474Z,101158.94
2022-09-21T00:18:14.091Z,101154.44
2022-09-21T00:19:16.836Z,101151.63
2022-09-21T00:20:19.499Z,101149.38
2022-09-21T00:21:21.837Z,101149.38
2022-09-21T00:22:23.344Z,101152.44
2022-09-21T00:23:24.856Z,101154.38
2022-09-21T00:24:26.355Z,101157.47
2022-09-21T00:25:27.872Z,101158.31
2022-09-21T00:26:29.418Z,101155.78
2022-09-21T00:27:31.087Z,101146.53
2022-09-21T00:28:32.571Z,101152.41
2022-09-21T00:29:34.041Z,101155.22
2022-09-21T00:30:35.511Z,101153.53
2022-09-21T00:31:37.201Z,101159.41
2022-09-21T00:32:39.557Z,101165.88
2022-09-21T00:33:41.243Z,101161.38
2022-09-21T00:34:42.673Z,101161.38
2022-09-21T00:35:44.346Z,101155.19
2022-09-21T00:36:46.217Z,101152.38
2022-09-21T00:37:47.705Z,101152.63
2022-09-21T00:38:49.699Z,101159.34
2022-09-21T00:39:51.174Z,101165.22
2022-09-21T00:40:52.835Z,101162.44
2022-09-21T00:41:54.276Z,101163.53
2022-09-21T00:43:11.078Z,101157.34
2022-09-21T00:44:18.719Z,101147.25
2022-09-21T00:45:22.968Z,101157.34
2022-09-21T00:46:26.478Z,101153.97
2022-09-21T00:47:28.940Z,101159.59
2022-09-21T00:48:30.965Z,101153.97
2022-09-21T00:49:32.530Z,101164.34
2022-09-21T00:50:34.143Z,101161.81
2022-09-21T00:51:36.052Z,101160.13
2022-09-21T00:52:38.209Z,101160.97
2022-09-21T00:53:39.693Z,101160.13
2022-09-21T00:54:44.348Z,101157.34
2022-09-21T00:55:49.940Z,101155.66
2022-09-21T00:56:51.464Z,101163.22
2022-09-21T00:57:54.548Z,101162.34
2022-09-21T00:58:56.154Z,101167.09
2022-09-21T00:59:58.079Z,101160.66
2022-09-21T01:00:59.841Z,101164.56
2022-09-21T01:02:01.585Z,101169.34
2022-09-21T01:03:03.850Z,101165.41
2022-09-21T01:04:07.010Z,101165.69
2022-09-21T01:05:08.643Z,101163.72
2022-09-21T01:06:10.146Z,101169.03
2022-09-21T01:07:13.185Z,101163.44
2022-09-21T01:08:15.365Z,101172.97
2022-09-21T01:09:16.894Z,101170.16
2022-09-21T01:10:18.430Z,101175.19
2022-09-21T01:11:31.600Z,101173.50
2022-09-21T01:12:42.409Z,101165.34
2022-09-21T01:13:46.778Z,101169.25
2022-09-21T01:14:57.521Z,101175.13
2022-09-21T01:15:59.049Z,101174.53
2022-09-21T01:17:03.715Z,101174.81
2022-09-21T01:18:08.379Z,101162.09
2022-09-21T01:19:10.165Z,101171.72
2022-09-21T01:20:34.477Z,101175.63
2022-09-21T01:21:38.156Z,101177.84
2022-09-21T01:22:57.553Z,101170.53
2022-09-21T01:24:17.826Z,101175.56
2022-09-21T01:25:38.083Z,101185.09
2022-09-21T01:26:58.339Z,101180.88
2022-09-21T01:27:59.821Z,101185.91
2022-09-21T01:29:12.616Z,101184.47
2022-09-21T01:30:18.169Z,101188.63
2022-09-21T01:31:23.084Z,101191.69
2022-09-21T01:32:28.545Z,101190.00
2022-09-21T01:33:31.852Z,101181.88
2022-09-21T01:34:52.730Z,101187.72
2022-09-21T01:35:57.975Z,101187.97
2022-09-21T01:37:00.387Z,101186.28
2022-09-21T01:38:03.162Z,101185.72
2022-09-21T01:39:07.230Z,101178.66
2022-09-21T01:40:11.445Z,101183.41
2022-09-21T01:41:13.448Z,101189.28
2022-09-21T01:42:15.319Z,101184.78
2022-09-21T01:43:20.304Z,101182.25
2022-09-21T01:44:22.802Z,101193.75
2022-09-21T01:45:28.573Z,101192.03
2022-09-21T01:46:30.614Z,101193.16
2022-09-21T01:47:32.074Z,101185.88
2022-09-21T01:48:35.200Z,101197.06
2022-09-21T01:49:37.443Z,101195.38
2022-09-21T01:50:40.782Z,101180.78
2022-09-21T01:51:43.904Z,101195.66
2022-09-21T01:52:45.339Z,101194.19
2022-09-21T01:53:46.763Z,101198.09
2022-09-21T01:55:08.514Z,101191.66
2022-09-21T01:56:09.938Z,101194.72
2022-09-21T01:57:11.744Z,101192.19
2022-09-21T01:58:20.228Z,101199.75
2022-09-21T01:59:24.211Z,101198.31
2022-09-21T02:00:25.799Z,101195.53
2022-09-21T02:01:27.461Z,101192.16
2022-09-21T02:02:37.059Z,101200.56
2022-09-21T02:03:49.569Z,101192.38
2022-09-21T02:04:51.072Z,101190.69
2022-09-21T03:22:33.053Z,101189.25
2022-09-21T03:23:34.595Z,101180.00
2022-09-21T03:24:48.133Z,101184.75
2022-09-21T03:25:49.619Z,101184.75
2022-09-21T03:26:51.358Z,101183.06
2022-09-21T03:27:53.851Z,101185.84
2022-09-21T03:28:55.643Z,101190.34
2022-09-21T03:30:01.329Z,101189.75
2022-09-21T03:31:03.639Z,101186.97
2022-09-21T03:32:05.215Z,101185.00
2022-09-21T03:33:06.716Z,101186.97
2022-09-21T03:34:08.226Z,101186.38
2022-09-21T03:35:09.786Z,101189.16
2022-09-21T03:36:11.553Z,101185.53
2022-09-21T03:37:13.022Z,101193.06
2022-09-21T03:38:15.066Z,101189.44
2022-09-21T03:39:16.494Z,101191.38
2022-09-21T03:40:18.113Z,101194.19
2022-09-21T03:41:19.683Z,101186.88
2022-09-21T03:42:21.168Z,101199.78
2022-09-21T03:43:22.634Z,101194.19
2022-09-21T03:44:24.379Z,101192.47
2022-09-21T03:45:27.199Z,101198.94
2022-09-21T03:46:29.385Z,101197.22
2022-09-21T03:47:30.938Z,101192.75
2022-09-21T03:48:32.734Z,101196.38
2022-09-21T03:49:35.044Z,101199.44
2022-09-21T03:50:36.701Z,101198.34
2022-09-21T03:51:39.461Z,101197.50
2022-09-21T03:52:41.007Z,101199.44
2022-09-21T03:53:42.452Z,101190.19
2022-09-21T03:54:43.950Z,101198.59
2022-09-21T03:55:45.386Z,101200.50
2022-09-21T03:56:46.833Z,101202.47
2022-09-21T03:57:48.362Z,101206.38
2022-09-21T03:58:49.863Z,101202.72
2022-09-21T03:59:52.091Z,101203.56
2022-09-21T04:00:54.447Z,101203.81
2022-09-21T04:01:55.886Z,101205.78
2022-09-21T04:02:57.394Z,101200.19
2022-09-21T04:03:59.267Z,101204.09
2022-09-21T04:05:00.713Z,101204.09
2022-09-21T04:06:08.246Z,101199.59
2022-09-21T04:07:09.735Z,101200.69
2022-09-21T04:08:11.934Z,101203.50
2022-09-21T04:09:13.490Z,101203.50
2022-09-21T04:10:16.407Z,101201.81
2022-09-21T04:11:18.499Z,101207.41
2022-09-21T04:12:23.025Z,101201.81
2022-09-21T04:13:24.838Z,101200.09
2022-09-21T04:14:26.327Z,101202.31
2022-09-21T04:15:27.822Z,101202.31
2022-09-21T04:16:29.308Z,101210.09
2022-09-21T04:17:31.491Z,101213.75
2022-09-21T04:18:32.972Z,101207.28
2022-09-21T04:19:34.438Z,101211.81
2022-09-21T04:20:35.907Z,101209.00
2022-09-21T04:21:37.426Z,101209.84
2022-09-21T04:22:42.676Z,101213.50
2022-09-21T04:23:45.159Z,101211.56
2022-09-21T04:24:46.643Z,101213.50
2022-09-21T04:25:48.747Z,101212.66
2022-09-21T04:26:50.219Z,101218.00
2022-09-21T04:27:52.251Z,101209.59
2022-09-21T04:28:53.920Z,101211.28
2022-09-21T04:29:55.355Z,101218.56
2022-09-21T04:30:56.830Z,101213.00
2022-09-21T04:31:58.347Z,101213.84
2022-09-21T04:33:00.169Z,101217.47
2022-09-21T04:34:01.634Z,101214.69
2022-09-21T04:35:03.111Z,101214.69
2022-09-21T04:36:05.006Z,101216.38
2022-09-21T04:37:08.240Z,101216.13
2022-09-21T04:38:09.730Z,101218.06
2022-09-21T04:39:11.182Z,101212.47
2022-09-21T04:40:12.901Z,101219.75
2022-09-21T04:41:14.670Z,101220.34
2022-09-21T04:42:16.105Z,101218.41
2022-09-21T04:43:22.042Z,101217.56
2022-09-21T04:44:24.750Z,101222.03
2022-09-21T04:45:26.222Z,101219.25
2022-09-21T04:46:27.693Z,101222.66
2022-09-21T04:47:29.922Z,101220.72
2022-09-21T04:48:31.386Z,101221.31
2022-09-21T04:49:32.857Z,101220.44
2022-09-21T04:50:34.311Z,101227.75
2022-09-21T04:51:37.769Z,101222.16
2022-09-21T04:52:39.423Z,101223.84
2022-09-21T04:53:41.914Z,101225.78
2022-09-21T04:54:43.370Z,101226.63
2022-09-21T04:55:45.270Z,101221.88
2022-09-21T04:56:46.708Z,101223.84
2022-09-21T04:57:48.196Z,101230.28
2022-09-21T04:58:49.707Z,101233.91
2022-09-21T04:59:51.262Z,101233.91
2022-09-21T05:00:52.809Z,101235.88
2022-09-21T05:01:54.389Z,101231.13
2022-09-21T05:02:55.873Z,101239.50
2022-09-21T05:04:02.411Z,101238.94
2022-09-21T05:05:04.013Z,101233.34
2022-09-21T05:06:05.609Z,101227.75
2022-09-21T05:07:07.087Z,101233.34
2022-09-21T05:08:08.510Z,101234.44
2022-09-21T05:09:28.405Z,101229.09
2022-09-21T05:10:30.474Z,101241.97
2022-09-21T05:11:31.923Z,101229.09
2022-09-21T05:12:33.640Z,101236.38
2022-09-21T05:13:35.147Z,101236.66
2022-09-21T05:14:36.666Z,101240.28
2022-09-21T05:15:39.408Z,101247.81
2022-09-21T05:16:40.946Z,101240.28
2022-09-21T05:17:42.483Z,101245.88
2022-09-21T05:18:44.064Z,101244.78
2022-09-21T05:19:45.513Z,101245.88
2022-09-21T05:20:53.525Z,101252.91
2022-09-21T05:21:55.050Z,101246.22
2022-09-21T05:22:59.251Z,101255.72
2022-09-21T05:24:00.734Z,101255.72
2022-09-21T05:25:02.179Z,101245.88
2022-09-21T05:26:03.720Z,101257.41
2022-09-21T05:27:05.282Z,101254.59
2022-09-21T05:28:06.986Z,101250.97
2022-09-21T05:29:08.653Z,101254.59
2022-09-21T05:30:10.703Z,101251.81
2022-09-21T05:31:18.706Z,101257.66
2022-09-21T05:32:25.002Z,101260.19
2022-09-21T05:33:27.073Z,101260.19
2022-09-21T05:34:47.074Z,101264.69
2022-09-21T05:36:07.463Z,101261.88
2022-09-21T05:37:10.501Z,101261.63
2022-09-21T05:38:18.294Z,101258.56
2022-09-21T05:39:19.851Z,101259.44
2022-09-21T05:40:21.409Z,101260.28
2022-09-21T05:41:23.206Z,101260.28
2022-09-21T05:42:24.770Z,101259.16
2022-09-21T05:43:26.377Z,101261.97
2022-09-21T05:44:27.967Z,101260.84
2022-09-21T05:45:29.577Z,101262.81
2022-09-21T05:46:41.457Z,101265.13
2022-09-21T05:47:43.027Z,101262.34
2022-09-21T05:48:47.820Z,101261.22
2022-09-21T05:49:51.879Z,101270.47
2022-09-21T05:51:16.787Z,101260.97
2022-09-21T05:52:44.295Z,101264.88
2022-09-21T05:53:50.455Z,101272.16
2022-09-21T05:55:07.380Z,101269.94
2022-09-21T05:56:15.578Z,101272.50
2022-09-21T05:57:27.419Z,101266.66
2022-09-21T05:58:35.851Z,101272.84
2022-09-21T05:59:48.597Z,101269.81
2022-09-21T06:00:58.992Z,101266.78
2022-09-21T06:02:18.536Z,101272.09
2022-09-21T06:03:32.375Z,101275.75
2022-09-21T06:04:34.103Z,101278.28
2022-09-21T06:05:35.847Z,101274.38
2022-09-21T06:06:37.290Z,101278.03
2022-09-21T06:07:38.927Z,101272.19
2022-09-21T06:08:40.387Z,101284.81
2022-09-21T06:09:43.291Z,101275.09
2022-09-21T06:10:45.303Z,101281.84
2022-09-21T06:11:47.215Z,101278.78
2022-09-21T06:12:48.735Z,101288.63
2022-09-21T06:13:50.168Z,101281.66
2022-09-21T06:14:51.673Z,101287.88
2022-09-21T06:15:53.785Z,101284.56
2022-09-21T06:16:55.325Z,101288.78
2022-09-21T06:17:57.752Z,101285.72
2022-09-21T06:18:59.176Z,101283.53
2022-09-21T06:20:00.774Z,101293.38
2022-09-21T06:21:02.429Z,101286.41
2022-09-21T06:22:03.918Z,101292.34
2022-09-21T06:23:06.294Z,101294.88
2022-09-21T06:24:07.881Z,101294.34
2022-09-21T06:25:09.460Z,101289.38
2022-09-21T06:26:11.183Z,101293.88
2022-09-21T06:27:12.606Z,101290.56
2022-09-21T06:28:14.142Z,101298.44
2022-09-21T06:29:15.595Z,101294.25
2022-09-21T06:30:17.034Z,101290.97
2022-09-21T06:31:18.524Z,101299.09
2022-09-21T06:32:20.902Z,101301.38
2022-09-21T06:33:23.621Z,101301.13
2022-09-21T06:34:25.187Z,101290.81
2022-09-21T06:35:27.166Z,101294.25
2022-09-21T06:36:28.690Z,101306.03
2022-09-21T06:37:30.105Z,101304.41
2022-09-21T06:38:31.971Z,101299.38
2022-09-21T06:39:33.525Z,101304.44
2022-09-21T06:40:36.108Z,101300.31
2022-09-21T06:41:37.717Z,101305.13
2022-09-21T06:42:44.688Z,101292.53
2022-09-21T06:43:46.263Z,101299.34
2022-09-21T06:44:47.821Z,101305.84
2022-09-21T06:45:53.111Z,101301.66
2022-09-21T06:46:54.667Z,101307.59
2022-09-21T06:47:56.150Z,101303.19
2022-09-21T06:48:57.670Z,101298.16
2022-09-21T06:49:59.450Z,101298.22
2022-09-21T06:51:04.515Z,101297.72
2022-09-21T06:52:06.837Z,101295.50
2022-09-21T06:53:08.282Z,101299.47
2022-09-21T06:54:09.883Z,101299.22
2022-09-21T06:55:11.326Z,101301.25
2022-09-21T06:56:12.794Z,101298.75
2022-09-21T06:57:14.930Z,101300.16
2022-09-21T06:58:16.404Z,101295.72
2022-09-21T06:59:18.113Z,101306.44
2022-09-21T07:00:19.618Z,101304.78
2022-09-21T07:01:21.309Z,101299.50
2022-09-21T07:02:22.882Z,101305.41
2022-09-21T07:03:25.391Z,101309.41
2022-09-21T07:04:28.462Z,101299.34
2022-09-21T07:05:30.001Z,101298.78
2022-09-21T07:06:31.526Z,101298.28
2022-09-21T07:07:33.055Z,101312.34
2022-09-21T07:10:06.885Z,101298.34
2022-09-21T07:11:09.010Z,101303.47
2022-09-21T07:12:10.429Z,101304.63
2022-09-21T07:13:11.911Z,101304.91
2022-09-21T07:14:14.607Z,101304.38
2022-09-21T07:15:16.233Z,101303.03
2022-09-21T07:16:18.747Z,101308.09
2022-09-21T07:17:20.203Z,101310.94
2022-09-21T07:18:21.832Z,101314.91
2022-09-21T07:19:23.353Z,101308.75
2022-09-21T07:20:24.875Z,101299.78
2022-09-21T07:21:26.865Z,101318.63
2022-09-21T07:22:28.994Z,101316.16
2022-09-21T07:23:30.507Z,101307.19
2022-09-21T07:24:31.990Z,101303.59
2022-09-21T07:25:34.274Z,101300.84
2022-09-21T07:26:37.230Z,101308.44
2022-09-21T07:27:38.787Z,101306.53
2022-09-21T07:28:40.230Z,101314.13
2022-09-21T07:29:42.711Z,101310.50
2022-09-21T07:30:44.200Z,101310.84
2022-09-21T07:31:45.679Z,101308.03
2022-09-21T07:32:47.470Z,101305.25
2022-09-21T07:33:48.934Z,101307.00
2022-09-21T07:34:50.409Z,101314.31
2022-09-21T07:35:56.698Z,101310.13
2022-09-21T07:36:58.135Z,101306.22
2022-09-21T07:38:00.294Z,101310.75
2022-09-21T07:39:03.094Z,101316.13
2022-09-21T07:40:06.164Z,101313.31
2022-09-21T07:41:08.097Z,101304.91
2022-09-21T07:42:09.555Z,101308.03
2022-09-21T07:43:11.081Z,101308.91
2022-09-21T07:44:12.508Z,101308.91
2022-09-21T07:45:13.961Z,101307.78
2022-09-21T07:46:15.506Z,101307.00
2022-09-21T07:47:17.008Z,101306.16
2022-09-21T07:48:18.447Z,101307.28
2022-09-21T07:49:20.069Z,101306.19
2022-09-21T07:50:21.656Z,101307.31
2022-09-21T07:51:23.643Z,101298.06
2022-09-21T07:52:25.111Z,101305.09
2022-09-21T07:53:26.578Z,101310.19
2022-09-21T07:54:28.095Z,101305.41
2022-09-21T07:55:29.620Z,101304.00
2022-09-21T07:56:31.086Z,101301.19
2022-09-21T07:57:51.330Z,101300.66
2022-09-21T07:59:08.098Z,101294.44
2022-09-21T08:00:10.108Z,101292.78
2022-09-21T08:01:14.453Z,101302.91
2022-09-21T08:02:16.113Z,101301.22
2022-09-21T08:03:17.574Z,101302.59
2022-09-21T08:04:19.031Z,101295.59
2022-09-21T08:05:20.528Z,101300.66
2022-09-21T08:06:22.102Z,101295.56
2022-09-21T08:07:23.540Z,101304.28
2022-09-21T08:08:25.752Z,101303.97
2022-09-21T08:09:27.180Z,101302.25
2022-09-21T08:10:29.973Z,101299.41
2022-09-21T08:11:31.658Z,101303.63
2022-09-21T08:12:33.155Z,101303.91
2022-09-21T08:13:34.674Z,101303.03
2022-09-21T08:14:36.231Z,101300.47
2022-09-21T08:15:49.410Z,101296.16
2022-09-21T08:16:51.553Z,101293.88
2022-09-21T08:17:56.926Z,101294.13
2022-09-21T08:18:58.466Z,101297.50
2022-09-21T08:20:00.199Z,101293.72
2022-09-21T08:21:01.637Z,101292.84
2022-09-21T08:22:03.242Z,101297.31
2022-09-21T08:23:05.025Z,101295.00
2022-09-21T08:24:06.586Z,101288.13
2022-09-21T08:25:08.187Z,101291.19
2022-09-21T08:26:19.067Z,101299.81
2022-09-21T08:27:20.574Z,101304.00
2022-09-21T08:28:22.068Z,101296.84
2022-09-21T08:29:24.025Z,101292.22
2022-09-21T08:30:27.956Z,101304.59
2022-09-21T08:31:30.407Z,101292.56
2022-09-21T08:32:49.904Z,101300.34
2022-09-21T08:33:52.844Z,101297.03
2022-09-21T08:34:54.440Z,101296.06
2022-09-21T08:35:56.183Z,101301.03
2022-09-21T08:36:57.651Z,101300.88
2022-09-21T08:37:59.165Z,101300.16
2022-09-21T08:39:00.600Z,101307.03
2022-09-21T08:40:03.141Z,101302.59
2022-09-21T08:41:14.098Z,101299.63
2022-09-21T08:42:30.498Z,101301.09
2022-09-21T08:43:34.187Z,101296.00
2022-09-21T08:44:39.761Z,101295.53
2022-09-21T08:45:42.274Z,101292.72
2022-09-21T08:46:43.852Z,101300.22
2022-09-21T08:47:46.876Z,101292.06
2022-09-21T08:48:56.322Z,101291.88
2022-09-21T08:49:58.467Z,101291.06
2022-09-21T08:51:01.206Z,101292.75
2022-09-21T08:52:03.551Z,101299.06
2022-09-21T08:53:06.540Z,101290.34
2022-09-21T08:54:12.600Z,101290.41
2022-09-21T08:55:17.917Z,101290.66
2022-09-21T08:56:33.058Z,101292.41
2022-09-21T08:57:47.198Z,101293.16
2022-09-21T08:58:48.715Z,101286.69
2022-09-21T08:59:50.668Z,101294.13
2022-09-21T09:00:56.023Z,101287.88
2022-09-21T09:02:04.870Z,101286.66
2022-09-21T09:03:09.055Z,101287.13
2022-09-21T09:04:22.110Z,101285.53
2022-09-21T09:05:42.054Z,101280.59
2022-09-21T09:06:52.830Z,101275.03
2022-09-21T09:08:12.857Z,101286.31
2022-09-21T09:09:30.047Z,101277.16
2022-09-21T09:10:37.482Z,101275.56
2022-09-21T09:11:57.411Z,101270.09
2022-09-21T09:13:17.991Z,101273.66
2022-09-21T09:14:31.701Z,101276.03
2022-09-21T09:15:42.379Z,101272.19
2022-09-21T09:16:43.826Z,101267.19
2022-09-21T09:17:48.371Z,101272.75
2022-09-21T09:18:53.139Z,101262.84
2022-09-21T09:19:56.466Z,101265.38
2022-09-21T09:20:58.815Z,101265.38
2022-09-21T09:22:00.276Z,101266.88
2022-09-21T09:23:20.898Z,101257.97
2022-09-21T09:24:33.247Z,101256.94
2022-09-21T09:25:38.075Z,101262.97
2022-09-21T09:26:57.901Z,101263.94
2022-09-21T09:27:59.680Z,101255.34
2022-09-21T09:29:02.126Z,101256.81
2022-09-21T09:30:06.563Z,101261.47
2022-09-21T09:31:12.942Z,101252.34
2022-09-21T09:32:15.191Z,101251.31
2022-09-21T09:33:18.341Z,101250.75
2022-09-21T09:34:29.387Z,101251.88
2022-09-21T09:35:36.681Z,101256.19
2022-09-21T09:36:57.773Z,101244.84
2022-09-21T09:38:03.784Z,101248.84
2022-09-21T09:39:05.991Z,101254.16
2022-09-21T09:40:08.675Z,101241.34
2022-09-21T09:41:19.378Z,101248.53
2022-09-21T09:42:30.124Z,101252.78
2022-09-21T09:43:37.356Z,101242.59
2022-09-21T09:44:41.483Z,101243.31
2022-09-21T09:45:45.143Z,101243.38
2022-09-21T09:46:52.646Z,101235.47
2022-09-21T09:48:07.859Z,101240.88
2022-09-21T09:49:13.007Z,101239.69
2022-09-21T09:50:20.458Z,101240.88
2022-09-21T09:51:22.194Z,101244.59
2022-09-21T09:52:23.697Z,101230.28
2022-09-21T09:53:25.492Z,101229.31
2022-09-21T09:54:27.475Z,101232.94
2022-09-21T09:55:32.936Z,101232.22
2022-09-21T09:56:34.431Z,101225.06
2022-09-21T09:57:35.895Z,101227.56
2022-09-21T09:58:39.446Z,101230.31
2022-09-21T09:59:45.122Z,101234.13
2022-09-21T10:00:47.170Z,101235.69
2022-09-21T10:01:58.138Z,101227.91
2022-09-21T10:02:59.652Z,101229.66
2022-09-21T10:04:05.198Z,101229.19
2022-09-21T10:05:06.818Z,101222.50
2022-09-21T10:06:12.778Z,101221.78
2022-09-21T10:07:20.007Z,101217.94
2022-09-21T10:08:36.841Z,101220.09
2022-09-21T10:09:38.297Z,101224.88
2022-09-21T10:10:42.750Z,101221.75
2022-09-21T10:11:44.192Z,101217.59
2022-09-21T10:12:46.361Z,101215.31
2022-09-21T10:13:47.972Z,101218.16
2022-09-21T10:14:49.919Z,101203.31
2022-09-21T10:15:53.930Z,101206.59
2022-09-21T10:16:55.714Z,101206.13
2022-09-21T10:17:58.090Z,101209.72
2022-09-21T10:19:01.548Z,101207.69
2022-09-21T10:20:04.177Z,101204.00
2022-09-21T10:21:08.430Z,101213.06
2022-09-21T10:22:15.178Z,101209.00
2022-09-21T10:23:16.642Z,101214.38
2022-09-21T10:24:23.361Z,101212.81
2022-09-21T10:25:24.859Z,101210.56
2022-09-21T10:26:31.027Z,101213.91
2022-09-21T10:27:35.610Z,101204.47
2022-09-21T10:28:37.100Z,101213.78
2022-09-21T10:29:39.991Z,101211.81
2022-09-21T10:30:41.834Z,101206.53
2022-09-21T10:32:01.415Z,101201.28
2022-09-21T10:33:03.168Z,101203.19
2022-09-21T10:34:06.364Z,101206.66
2022-09-21T10:35:07.979Z,101194.31
2022-09-21T10:36:21.374Z,101205.16
2022-09-21T10:37:24.547Z,101201.66
2022-09-21T10:38:29.051Z,101203.31
2022-09-21T10:39:33.703Z,101202.56
2022-09-21T10:40:38.307Z,101200.63
2022-09-21T10:41:39.856Z,101199.44
2022-09-21T10:42:41.957Z,101194.16
2022-09-21T10:43:44.479Z,101198.22
2022-09-21T10:44:46.577Z,101199.25
2022-09-21T10:45:52.787Z,101190.25
2022-09-21T10:47:56.697Z,101187.16
2022-09-21T10:48:58.146Z,101191.41
2022-09-21T10:50:00.751Z,101192.25
2022-09-21T10:51:02.186Z,101185.19
2022-09-21T10:52:03.671Z,101182.03
2022-09-21T10:53:10.856Z,101185.19
2022-09-21T10:54:14.131Z,101190.47
2022-09-21T10:55:16.579Z,101185.78
2022-09-21T10:56:21.050Z,101184.84
2022-09-21T10:57:23.443Z,101186.81
2022-09-21T10:58:24.915Z,101179.94
2022-09-21T10:59:27.519Z,101181.78
2022-09-21T11:00:35.338Z,101180.66
2022-09-21T11:01:36.857Z,101175.28
2022-09-21T11:02:39.098Z,101172.66
2022-09-21T11:03:51.378Z,101176.34
2022-09-21T11:04:53.812Z,101182.13
2022-09-21T11:05:55.799Z,101181.09
2022-09-21T11:06:58.891Z,101177.66
2022-09-21T11:08:02.878Z,101183.84
2022-09-21T11:09:09.101Z,101176.09
2022-09-21T11:10:21.447Z,101171.69
2022-09-21T11:11:30.297Z,101167.44
2022-09-21T11:12:38.119Z,101178.84
2022-09-21T11:13:41.158Z,101176.63
2022-09-21T11:14:51.295Z,101175.88
2022-09-21T11:15:52.905Z,101180.22
2022-09-21T11:16:55.894Z,101181.34
2022-09-21T11:18:00.569Z,101178.38
2022-09-21T11:19:05.914Z,101171.34
2022-09-21T11:20:16.218Z,101163.34
2022-09-21T11:21:20.742Z,101175.03
2022-09-21T11:22:31.625Z,101176.41
2022-09-21T11:23:59.050Z,101175.84
2022-09-21T11:25:00.645Z,101172.28
2022-09-21T11:26:22.315Z,101169.34
2022-09-21T11:27:42.410Z,101171.16
2022-09-21T11:28:47.334Z,101169.34
2022-09-21T11:30:03.067Z,101168.03
2022-09-21T11:31:07.570Z,101177.59
2022-09-21T11:32:17.116Z,101169.75
2022-09-21T11:33:38.890Z,101170.94
2022-09-21T11:34:40.625Z,101172.75
2022-09-21T11:35:58.674Z,101167.38
2022-09-21T11:37:00.098Z,101174.78
2022-09-21T11:38:11.378Z,101164.84
2022-09-21T11:39:33.072Z,101166.06
2022-09-21T11:40:43.781Z,101165.59
2022-09-21T11:41:50.454Z,101158.50
2022-09-21T11:42:56.143Z,101160.44
2022-09-21T11:44:17.435Z,101169.41
2022-09-21T11:45:26.310Z,101161.63
2022-09-21T11:46:27.775Z,101155.69
2022-09-21T11:47:41.463Z,101162.00
2022-09-21T11:48:48.822Z,101165.09
2022-09-21T11:50:07.880Z,101151.16
2022-09-21T11:51:38.702Z,101151.84
2022-09-21T11:52:47.412Z,101156.72
2022-09-21T11:53:58.251Z,101161.63
2022-09-21T11:55:08.403Z,101157.34
2022-09-21T11:56:09.890Z,101156.63
2022-09-21T11:57:24.256Z,101159.94
2022-09-21T11:58:31.327Z,101151.84
2022-09-21T11:59:51.306Z,101151.97
2022-09-21T12:01:01.541Z,101148.75
2022-09-21T12:02:14.883Z,101153.75
2022-09-21T12:03:16.460Z,101138.72
2022-09-21T12:04:36.138Z,101134.19
2022-09-21T12:05:37.840Z,101144.09
2022-09-21T12:06:45.511Z,101136.56
2022-09-21T12:08:02.263Z,101142.31
2022-09-21T12:09:06.589Z,101146.00
2022-09-21T12:10:26.848Z,101145.63
2022-09-21T12:11:44.403Z,101147.09
2022-09-21T12:12:51.760Z,101148.50
2022-09-21T12:13:56.357Z,101144.22
2022-09-21T12:15:18.751Z,101145.47
2022-09-21T12:16:23.458Z,101139.38
2022-09-21T12:17:27.734Z,101133.63
2022-09-21T12:18:34.469Z,101130.66
2022-09-21T12:19:41.995Z,101133.38
2022-09-21T12:20:49.690Z,101137.19
2022-09-21T12:21:53.308Z,101131.94
2022-09-21T12:23:01.741Z,101129.91
2022-09-21T12:24:04.447Z,101128.72
2022-09-21T12:25:13.202Z,101137.78
2022-09-21T12:26:16.243Z,101131.72
2022-09-21T12:27:31.585Z,101135.91
2022-09-21T12:28:39.246Z,101134.56
2022-09-21T12:29:47.559Z,101120.25
2022-09-21T12:30:50.286Z,101137.19
2022-09-21T12:32:11.968Z,101110.56
2022-09-21T12:33:14.078Z,101133.84
2022-09-21T12:34:22.628Z,101120.22
2022-09-21T12:35:39.333Z,101122.25
2022-09-21T12:36:46.040Z,101138.59
2022-09-21T12:37:49.587Z,101132.03
2022-09-21T12:38:51.003Z,101126.31
2022-09-21T12:39:56.178Z,101126.19
2022-09-21T12:41:05.238Z,101126.44
2022-09-21T12:42:09.444Z,101127.09
2022-09-21T12:43:21.013Z,101117.69
2022-09-21T12:44:35.952Z,101119.25
2022-09-21T12:45:48.528Z,101117.09
2022-09-21T12:46:55.829Z,101107.75
2022-09-21T12:48:00.315Z,101122.75
2022-09-21T12:49:01.926Z,101114.16
2022-09-21T12:50:05.902Z,101114.16
2022-09-21T12:51:27.102Z,101107.84
2022-09-21T12:52:28.574Z,101113.56
2022-09-21T12:53:30.628Z,101113.56
2022-09-21T12:54:41.441Z,101110.34
2022-09-21T12:55:53.786Z,101120.22
2022-09-21T12:57:42.587Z,101113.69
2022-09-21T12:58:59.586Z,101107.97
2022-09-21T13:00:04.121Z,101118.75
2022-09-21T13:01:06.246Z,101120.78
2022-09-21T13:02:24.600Z,101100.78
2022-09-21T13:03:29.479Z,101114.72
2022-09-21T13:04:41.790Z,101107.84
2022-09-21T13:05:47.986Z,101102.13
2022-09-21T13:07:08.672Z,101104.81
2022-09-21T13:08:10.843Z,101102.66
2022-09-21T13:09:12.744Z,101101.97
2022-09-21T13:10:15.766Z,101101.97
2022-09-21T13:11:21.491Z,101091.47
2022-09-21T13:12:24.071Z,101099.34
2022-09-21T13:13:27.903Z,101102.56
2022-09-21T13:14:29.731Z,101095.28
2022-09-21T13:15:31.897Z,101101.34
2022-09-21T13:16:34.675Z,101095.28
2022-09-21T13:17:36.678Z,101087.19
2022-09-21T13:18:38.672Z,101092.53
2022-09-21T13:19:40.106Z,101084.81
2022-09-21T13:20:41.904Z,101082.31
2022-09-21T13:21:44.239Z,101086.00
2022-09-21T13:22:46.099Z,101077.41
2022-09-21T13:24:00.761Z,101071.22
2022-09-21T13:25:03.880Z,101082.19
2022-09-21T13:26:06.250Z,101080.50
2022-09-21T13:27:08.107Z,101079.19
2022-09-21T13:28:13.055Z,101081.69
2022-09-21T13:29:17.595Z,101064.06
2022-09-21T13:30:30.785Z,101084.41
2022-09-21T13:31:43.050Z,101082.72
2022-09-21T13:32:50.916Z,101081.78
2022-09-21T13:34:08.779Z,101077.72
2022-09-21T13:35:30.487Z,101074.03
2022-09-21T13:36:33.394Z,101065.34
2022-09-21T13:37:34.959Z,101070.88
2022-09-21T13:38:42.457Z,101075.66
2022-09-21T13:39:43.976Z,101073.50